sensor_id;sensor_type;location;lat;lon;timestamp;temperature;humidity
16114;DHT22;8161;-33.910;151.156;2024-02-15T00:00:01;22.90;99.90
16114;DHT22;8161;-33.910;151.156;2024-02-15T00:02:29;22.40;99.90
16114;DHT22;8161;-33.910;151.156;2024-02-15T00:04:57;22.80;99.90
16114;DHT22;8161;-33.910;151.156;2024-02-15T00:07:24;22.90;99.90
16114;DHT22;8161;-33.910;151.156;2024-02-15T00:09:52;22.80;99.90
16114;DHT22;8161;-33.910;151.156;2024-02-15T00:12:23;22.90;99.90
16114;DHT22;8161;-33.910;151.156;2024-02-15T00:17:17;22.80;99.90
16114;DHT22;8161;-33.910;151.156;2024-02-15T00:22:13;22.80;99.90
16114;DHT22;8161;-33.910;151.156;2024-02-15T00:24:40;23.40;99.90
16114;DHT22;8161;-33.910;151.156;2024-02-15T00:27:09;22.60;99.90
16114;DHT22;8161;-33.910;151.156;2024-02-15T00:29:37;22.50;99.90
16114;DHT22;8161;-33.910;151.156;2024-02-15T00:32:07;23.10;99.90
16114;DHT22;8161;-33.910;151.156;2024-02-15T00:34:34;22.60;99.90
16114;DHT22;8161;-33.910;151.156;2024-02-15T00:37:01;23.10;99.90
16114;DHT22;8161;-33.910;151.156;2024-02-15T00:39:28;22.90;99.90
16114;DHT22;8161;-33.910;151.156;2024-02-15T00:41:57;22.80;99.90
16114;DHT22;8161;-33.910;151.156;2024-02-15T00:44:27;22.70;99.90
16114;DHT22;8161;-33.910;151.156;2024-02-15T00:46:54;22.80;99.90
16114;DHT22;8161;-33.910;151.156;2024-02-15T00:49:22;22.80;99.90
16114;DHT22;8161;-33.910;151.156;2024-02-15T00:51:49;22.80;99.90
16114;DHT22;8161;-33.910;151.156;2024-02-15T00:54:17;23.10;99.90
16114;DHT22;8161;-33.910;151.156;2024-02-15T00:56:44;23.50;99.90
16114;DHT22;8161;-33.910;151.156;2024-02-15T01:01:38;23.00;99.90
16114;DHT22;8161;-33.910;151.156;2024-02-15T01:06:34;22.80;99.90
16114;DHT22;8161;-33.910;151.156;2024-02-15T01:09:01;23.00;99.90
16114;DHT22;8161;-33.910;151.156;2024-02-15T01:14:00;23.00;99.90
16114;DHT22;8161;-33.910;151.156;2024-02-15T01:21:22;22.90;99.90
16114;DHT22;8161;-33.910;151.156;2024-02-15T01:26:21;22.60;99.90
16114;DHT22;8161;-33.910;151.156;2024-02-15T01:28:50;22.60;99.90
16114;DHT22;8161;-33.910;151.156;2024-02-15T01:31:17;22.50;99.90
16114;DHT22;8161;-33.910;151.156;2024-02-15T01:33:45;22.90;99.90
16114;DHT22;8161;-33.910;151.156;2024-02-15T01:38:44;22.60;99.90
16114;DHT22;8161;-33.910;151.156;2024-02-15T01:43:42;22.90;99.90
16114;DHT22;8161;-33.910;151.156;2024-02-15T01:46:10;23.10;99.90
16114;DHT22;8161;-33.910;151.156;2024-02-15T01:48:39;22.90;99.90
16114;DHT22;8161;-33.910;151.156;2024-02-15T01:51:08;22.80;99.90
16114;DHT22;8161;-33.910;151.156;2024-02-15T01:53:37;22.50;99.90
16114;DHT22;8161;-33.910;151.156;2024-02-15T01:58:33;23.00;99.90
16114;DHT22;8161;-33.910;151.156;2024-02-15T02:01:01;22.60;99.90
16114;DHT22;8161;-33.910;151.156;2024-02-15T02:03:29;22.80;99.90
16114;DHT22;8161;-33.910;151.156;2024-02-15T02:05:57;22.60;99.90
16114;DHT22;8161;-33.910;151.156;2024-02-15T02:10:52;22.70;99.90
16114;DHT22;8161;-33.910;151.156;2024-02-15T02:13:19;22.90;99.90
16114;DHT22;8161;-33.910;151.156;2024-02-15T02:15:47;22.90;99.90
16114;DHT22;8161;-33.910;151.156;2024-02-15T02:18:14;23.10;99.90
16114;DHT22;8161;-33.910;151.156;2024-02-15T02:23:14;22.70;99.90
16114;DHT22;8161;-33.910;151.156;2024-02-15T02:25:43;22.80;99.90
16114;DHT22;8161;-33.910;151.156;2024-02-15T02:30:38;23.00;99.90
16114;DHT22;8161;-33.910;151.156;2024-02-15T02:35:45;23.00;99.90
16114;DHT22;8161;-33.910;151.156;2024-02-15T02:38:14;23.20;99.90
16114;DHT22;8161;-33.910;151.156;2024-02-15T02:43:08;23.10;99.90
16114;DHT22;8161;-33.910;151.156;2024-02-15T02:45:36;23.00;99.90
16114;DHT22;8161;-33.910;151.156;2024-02-15T02:50:31;23.10;99.90
16114;DHT22;8161;-33.910;151.156;2024-02-15T02:52:58;23.40;99.90
16114;DHT22;8161;-33.910;151.156;2024-02-15T02:55:25;23.50;99.90
16114;DHT22;8161;-33.910;151.156;2024-02-15T02:57:53;23.40;99.90
16114;DHT22;8161;-33.910;151.156;2024-02-15T03:02:49;23.40;99.90
16114;DHT22;8161;-33.910;151.156;2024-02-15T03:07:43;23.20;99.90
16114;DHT22;8161;-33.910;151.156;2024-02-15T03:10:12;23.00;99.90
16114;DHT22;8161;-33.910;151.156;2024-02-15T03:12:40;23.70;99.90
16114;DHT22;8161;-33.910;151.156;2024-02-15T03:15:13;22.90;99.90
16114;DHT22;8161;-33.910;151.156;2024-02-15T03:17:42;23.10;99.90
16114;DHT22;8161;-33.910;151.156;2024-02-15T03:20:10;23.20;99.90
16114;DHT22;8161;-33.910;151.156;2024-02-15T03:22:39;22.90;99.90
16114;DHT22;8161;-33.910;151.156;2024-02-15T03:25:08;23.00;99.90
16114;DHT22;8161;-33.910;151.156;2024-02-15T03:30:07;22.90;99.90
16114;DHT22;8161;-33.910;151.156;2024-02-15T03:32:35;23.80;99.90
16114;DHT22;8161;-33.910;151.156;2024-02-15T03:35:02;23.00;99.90
16114;DHT22;8161;-33.910;151.156;2024-02-15T03:37:30;23.30;99.90
16114;DHT22;8161;-33.910;151.156;2024-02-15T03:40:01;23.40;99.90
16114;DHT22;8161;-33.910;151.156;2024-02-15T03:47:25;23.60;99.90
16114;DHT22;8161;-33.910;151.156;2024-02-15T03:49:55;23.30;99.90
16114;DHT22;8161;-33.910;151.156;2024-02-15T03:54:50;23.20;99.90
16114;DHT22;8161;-33.910;151.156;2024-02-15T03:57:19;23.10;99.90
16114;DHT22;8161;-33.910;151.156;2024-02-15T04:07:20;23.20;99.90
16114;DHT22;8161;-33.910;151.156;2024-02-15T04:09:48;23.10;99.90
16114;DHT22;8161;-33.910;151.156;2024-02-15T04:12:15;23.10;99.90
16114;DHT22;8161;-33.910;151.156;2024-02-15T04:14:46;23.00;99.90
16114;DHT22;8161;-33.910;151.156;2024-02-15T04:17:14;23.40;99.90
16114;DHT22;8161;-33.910;151.156;2024-02-15T04:19:48;23.90;99.90
16114;DHT22;8161;-33.910;151.156;2024-02-15T04:22:20;23.50;99.90
16114;DHT22;8161;-33.910;151.156;2024-02-15T04:27:15;23.60;99.90
16114;DHT22;8161;-33.910;151.156;2024-02-15T04:32:11;23.90;99.90
16114;DHT22;8161;-33.910;151.156;2024-02-15T04:34:40;23.10;99.90
16114;DHT22;8161;-33.910;151.156;2024-02-15T04:39:35;23.50;99.90
16114;DHT22;8161;-33.910;151.156;2024-02-15T04:47:02;23.50;99.90
16114;DHT22;8161;-33.910;151.156;2024-02-15T04:49:30;23.30;99.90
16114;DHT22;8161;-33.910;151.156;2024-02-15T04:51:57;23.80;99.90
16114;DHT22;8161;-33.910;151.156;2024-02-15T04:54:25;23.60;99.90
16114;DHT22;8161;-33.910;151.156;2024-02-15T04:56:52;23.40;99.90
16114;DHT22;8161;-33.910;151.156;2024-02-15T05:01:55;23.70;99.90
16114;DHT22;8161;-33.910;151.156;2024-02-15T05:04:25;23.50;99.90
16114;DHT22;8161;-33.910;151.156;2024-02-15T05:06:52;23.60;99.90
16114;DHT22;8161;-33.910;151.156;2024-02-15T05:09:19;23.80;99.90
16114;DHT22;8161;-33.910;151.156;2024-02-15T05:11:47;23.80;99.90
16114;DHT22;8161;-33.910;151.156;2024-02-15T05:14:15;23.40;99.90
16114;DHT22;8161;-33.910;151.156;2024-02-15T05:16:50;23.50;99.90
16114;DHT22;8161;-33.910;151.156;2024-02-15T05:19:17;23.80;99.90
16114;DHT22;8161;-33.910;151.156;2024-02-15T05:24:16;23.70;99.90
16114;DHT22;8161;-33.910;151.156;2024-02-15T05:26:47;24.20;99.90
16114;DHT22;8161;-33.910;151.156;2024-02-15T05:34:11;23.30;99.90
16114;DHT22;8161;-33.910;151.156;2024-02-15T05:36:39;23.70;99.90
16114;DHT22;8161;-33.910;151.156;2024-02-15T05:39:06;23.60;99.90
16114;DHT22;8161;-33.910;151.156;2024-02-15T05:44:01;23.50;99.90
16114;DHT22;8161;-33.910;151.156;2024-02-15T05:46:33;23.80;99.90
16114;DHT22;8161;-33.910;151.156;2024-02-15T05:49:04;23.40;99.90
16114;DHT22;8161;-33.910;151.156;2024-02-15T05:54:00;23.70;99.90
16114;DHT22;8161;-33.910;151.156;2024-02-15T05:56:27;23.50;99.90
16114;DHT22;8161;-33.910;151.156;2024-02-15T05:58:55;24.10;99.90
16114;DHT22;8161;-33.910;151.156;2024-02-15T06:01:23;23.50;99.90
16114;DHT22;8161;-33.910;151.156;2024-02-15T06:06:21;23.30;99.90
16114;DHT22;8161;-33.910;151.156;2024-02-15T06:11:21;23.30;99.90
16114;DHT22;8161;-33.910;151.156;2024-02-15T06:13:48;23.40;99.90
16114;DHT22;8161;-33.910;151.156;2024-02-15T06:18:42;23.20;99.90
16114;DHT22;8161;-33.910;151.156;2024-02-15T06:23:37;23.40;99.90
16114;DHT22;8161;-33.910;151.156;2024-02-15T06:26:04;23.10;99.90
16114;DHT22;8161;-33.910;151.156;2024-02-15T06:28:32;23.20;99.90
16114;DHT22;8161;-33.910;151.156;2024-02-15T06:31:15;23.20;99.90
16114;DHT22;8161;-33.910;151.156;2024-02-15T06:33:56;23.10;99.90
16114;DHT22;8161;-33.910;151.156;2024-02-15T06:36:47;23.30;99.90
16114;DHT22;8161;-33.910;151.156;2024-02-15T06:39:27;23.50;99.90
16114;DHT22;8161;-33.910;151.156;2024-02-15T06:42:13;23.50;99.90
16114;DHT22;8161;-33.910;151.156;2024-02-15T06:44:46;23.70;99.90
16114;DHT22;8161;-33.910;151.156;2024-02-15T06:47:13;23.40;99.90
16114;DHT22;8161;-33.910;151.156;2024-02-15T06:49:45;23.40;99.90
16114;DHT22;8161;-33.910;151.156;2024-02-15T06:52:12;23.80;99.90
16114;DHT22;8161;-33.910;151.156;2024-02-15T06:54:40;23.40;99.90
16114;DHT22;8161;-33.910;151.156;2024-02-15T06:57:08;23.50;99.90
16114;DHT22;8161;-33.910;151.156;2024-02-15T07:04:34;23.70;99.90
16114;DHT22;8161;-33.910;151.156;2024-02-15T07:07:03;23.60;99.90
16114;DHT22;8161;-33.910;151.156;2024-02-15T07:09:30;23.30;99.90
16114;DHT22;8161;-33.910;151.156;2024-02-15T07:11:57;23.60;99.90
16114;DHT22;8161;-33.910;151.156;2024-02-15T07:14:25;23.10;99.90
16114;DHT22;8161;-33.910;151.156;2024-02-15T07:16:54;23.20;99.90
16114;DHT22;8161;-33.910;151.156;2024-02-15T07:19:25;23.70;99.90
16114;DHT22;8161;-33.910;151.156;2024-02-15T07:24:23;23.50;99.90
16114;DHT22;8161;-33.910;151.156;2024-02-15T07:26:53;23.70;99.90
16114;DHT22;8161;-33.910;151.156;2024-02-15T07:29:23;23.50;99.90
16114;DHT22;8161;-33.910;151.156;2024-02-15T07:31:50;23.30;99.90
16114;DHT22;8161;-33.910;151.156;2024-02-15T07:39:13;23.60;99.90
16114;DHT22;8161;-33.910;151.156;2024-02-15T07:44:17;23.30;99.90
16114;DHT22;8161;-33.910;151.156;2024-02-15T07:46:45;23.40;99.90
16114;DHT22;8161;-33.910;151.156;2024-02-15T07:49:12;23.50;99.90
16114;DHT22;8161;-33.910;151.156;2024-02-15T07:59:01;23.30;99.90
16114;DHT22;8161;-33.910;151.156;2024-02-15T08:06:28;23.50;99.90
16114;DHT22;8161;-33.910;151.156;2024-02-15T08:08:58;23.30;99.90
16114;DHT22;8161;-33.910;151.156;2024-02-15T08:11:25;23.20;99.90
16114;DHT22;8161;-33.910;151.156;2024-02-15T08:18:56;23.30;99.90
16114;DHT22;8161;-33.910;151.156;2024-02-15T08:24:03;23.10;99.90
16114;DHT22;8161;-33.910;151.156;2024-02-15T08:26:39;23.10;99.90
16114;DHT22;8161;-33.910;151.156;2024-02-15T08:29:08;23.00;99.90
16114;DHT22;8161;-33.910;151.156;2024-02-15T08:34:09;23.30;99.90
16114;DHT22;8161;-33.910;151.156;2024-02-15T08:36:40;23.20;99.90
16114;DHT22;8161;-33.910;151.156;2024-02-15T08:39:07;23.20;99.90
16114;DHT22;8161;-33.910;151.156;2024-02-15T08:41:38;22.80;99.90
16114;DHT22;8161;-33.910;151.156;2024-02-15T08:46:38;23.10;99.90
16114;DHT22;8161;-33.910;151.156;2024-02-15T08:53:59;23.10;99.90
16114;DHT22;8161;-33.910;151.156;2024-02-15T08:56:27;22.60;99.90
16114;DHT22;8161;-33.910;151.156;2024-02-15T08:58:54;22.70;99.90
16114;DHT22;8161;-33.910;151.156;2024-02-15T09:01:22;22.50;99.90
16114;DHT22;8161;-33.910;151.156;2024-02-15T09:03:49;22.60;99.90
16114;DHT22;8161;-33.910;151.156;2024-02-15T09:06:16;23.00;99.90
16114;DHT22;8161;-33.910;151.156;2024-02-15T09:11:10;22.80;99.90
16114;DHT22;8161;-33.910;151.156;2024-02-15T09:13:39;22.70;99.90
16114;DHT22;8161;-33.910;151.156;2024-02-15T09:16:06;22.40;99.90
16114;DHT22;8161;-33.910;151.156;2024-02-15T09:18:34;22.70;99.90
16114;DHT22;8161;-33.910;151.156;2024-02-15T09:21:01;23.20;99.90
16114;DHT22;8161;-33.910;151.156;2024-02-15T09:23:28;22.70;99.90
16114;DHT22;8161;-33.910;151.156;2024-02-15T09:25:57;22.50;99.90
16114;DHT22;8161;-33.910;151.156;2024-02-15T09:30:52;22.70;99.90
16114;DHT22;8161;-33.910;151.156;2024-02-15T09:33:23;22.60;99.90
16114;DHT22;8161;-33.910;151.156;2024-02-15T09:35:50;22.70;99.90
16114;DHT22;8161;-33.910;151.156;2024-02-15T09:40:49;22.70;99.90
16114;DHT22;8161;-33.910;151.156;2024-02-15T09:43:16;22.40;99.90
16114;DHT22;8161;-33.910;151.156;2024-02-15T09:45:44;22.60;99.90
16114;DHT22;8161;-33.910;151.156;2024-02-15T09:48:11;22.80;99.90
16114;DHT22;8161;-33.910;151.156;2024-02-15T09:50:40;22.70;99.90
16114;DHT22;8161;-33.910;151.156;2024-02-15T09:53:09;22.50;99.90
16114;DHT22;8161;-33.910;151.156;2024-02-15T09:55:39;22.40;99.90
16114;DHT22;8161;-33.910;151.156;2024-02-15T10:03:06;22.50;99.90
16114;DHT22;8161;-33.910;151.156;2024-02-15T10:10:28;22.50;99.90
16114;DHT22;8161;-33.910;151.156;2024-02-15T10:12:55;22.20;99.90
16114;DHT22;8161;-33.910;151.156;2024-02-15T10:18:11;22.20;99.90
16114;DHT22;8161;-33.910;151.156;2024-02-15T10:20:39;22.60;99.90
16114;DHT22;8161;-33.910;151.156;2024-02-15T10:23:14;22.60;99.90
16114;DHT22;8161;-33.910;151.156;2024-02-15T10:25:45;22.50;99.90
16114;DHT22;8161;-33.910;151.156;2024-02-15T10:28:14;22.30;99.90
16114;DHT22;8161;-33.910;151.156;2024-02-15T10:30:43;22.40;99.90
16114;DHT22;8161;-33.910;151.156;2024-02-15T10:33:31;22.50;99.90
16114;DHT22;8161;-33.910;151.156;2024-02-15T10:36:09;22.20;99.90
16114;DHT22;8161;-33.910;151.156;2024-02-15T10:38:39;22.30;99.90
16114;DHT22;8161;-33.910;151.156;2024-02-15T10:41:08;22.70;99.90
16114;DHT22;8161;-33.910;151.156;2024-02-15T10:43:37;22.70;99.90
16114;DHT22;8161;-33.910;151.156;2024-02-15T10:46:05;22.70;99.90
16114;DHT22;8161;-33.910;151.156;2024-02-15T10:48:34;22.50;99.90
16114;DHT22;8161;-33.910;151.156;2024-02-15T10:51:04;22.70;99.90
16114;DHT22;8161;-33.910;151.156;2024-02-15T10:53:35;22.40;99.90
16114;DHT22;8161;-33.910;151.156;2024-02-15T10:56:12;22.20;99.90
16114;DHT22;8161;-33.910;151.156;2024-02-15T10:59:00;22.90;99.90
16114;DHT22;8161;-33.910;151.156;2024-02-15T11:01:32;22.70;99.90
16114;DHT22;8161;-33.910;151.156;2024-02-15T11:04:02;22.80;99.90
16114;DHT22;8161;-33.910;151.156;2024-02-15T11:09:01;22.20;99.90
16114;DHT22;8161;-33.910;151.156;2024-02-15T11:11:30;23.00;99.90
16114;DHT22;8161;-33.910;151.156;2024-02-15T11:16:51;22.80;99.90
16114;DHT22;8161;-33.910;151.156;2024-02-15T11:22:08;22.20;99.90
16114;DHT22;8161;-33.910;151.156;2024-02-15T11:24:37;22.20;99.90
16114;DHT22;8161;-33.910;151.156;2024-02-15T11:27:12;22.50;99.90
16114;DHT22;8161;-33.910;151.156;2024-02-15T11:29:55;22.70;99.90
16114;DHT22;8161;-33.910;151.156;2024-02-15T11:32:41;22.30;99.90
16114;DHT22;8161;-33.910;151.156;2024-02-15T11:35:15;22.90;99.90
16114;DHT22;8161;-33.910;151.156;2024-02-15T11:40:23;22.60;99.90
16114;DHT22;8161;-33.910;151.156;2024-02-15T11:45:31;22.10;99.90
16114;DHT22;8161;-33.910;151.156;2024-02-15T11:50:42;22.30;99.90
16114;DHT22;8161;-33.910;151.156;2024-02-15T11:53:09;22.10;99.90
16114;DHT22;8161;-33.910;151.156;2024-02-15T11:55:38;22.40;99.90
16114;DHT22;8161;-33.910;151.156;2024-02-15T11:58:07;22.50;99.90
16114;DHT22;8161;-33.910;151.156;2024-02-15T12:00:38;22.30;99.90
16114;DHT22;8161;-33.910;151.156;2024-02-15T12:03:18;22.40;99.90
16114;DHT22;8161;-33.910;151.156;2024-02-15T12:08:50;22.00;99.90
16114;DHT22;8161;-33.910;151.156;2024-02-15T12:11:31;22.40;99.90
16114;DHT22;8161;-33.910;151.156;2024-02-15T12:14:15;22.40;99.90
16114;DHT22;8161;-33.910;151.156;2024-02-15T12:22:32;22.30;99.90
16114;DHT22;8161;-33.910;151.156;2024-02-15T12:25:01;22.40;99.90
16114;DHT22;8161;-33.910;151.156;2024-02-15T12:30:17;22.90;99.90
16114;DHT22;8161;-33.910;151.156;2024-02-15T12:32:48;22.40;99.90
16114;DHT22;8161;-33.910;151.156;2024-02-15T12:35:22;22.40;99.90
16114;DHT22;8161;-33.910;151.156;2024-02-15T12:38:02;22.40;99.90
16114;DHT22;8161;-33.910;151.156;2024-02-15T12:40:33;22.20;99.90
16114;DHT22;8161;-33.910;151.156;2024-02-15T12:45:27;22.00;99.90
16114;DHT22;8161;-33.910;151.156;2024-02-15T12:47:56;22.40;99.90
16114;DHT22;8161;-33.910;151.156;2024-02-15T12:50:30;21.90;99.90
16114;DHT22;8161;-33.910;151.156;2024-02-15T12:52:58;22.10;99.90
16114;DHT22;8161;-33.910;151.156;2024-02-15T12:55:34;22.00;99.90
16114;DHT22;8161;-33.910;151.156;2024-02-15T13:00:35;22.40;99.90
16114;DHT22;8161;-33.910;151.156;2024-02-15T13:03:06;22.00;99.90
16114;DHT22;8161;-33.910;151.156;2024-02-15T13:10:36;22.10;99.90
16114;DHT22;8161;-33.910;151.156;2024-02-15T13:13:05;22.00;99.90
16114;DHT22;8161;-33.910;151.156;2024-02-15T13:15:33;22.10;99.90
16114;DHT22;8161;-33.910;151.156;2024-02-15T13:18:00;22.00;99.90
16114;DHT22;8161;-33.910;151.156;2024-02-15T13:20:31;22.50;99.90
16114;DHT22;8161;-33.910;151.156;2024-02-15T13:23:08;22.30;99.90
16114;DHT22;8161;-33.910;151.156;2024-02-15T13:25:38;22.20;99.90
16114;DHT22;8161;-33.910;151.156;2024-02-15T13:28:09;22.40;99.90
16114;DHT22;8161;-33.910;151.156;2024-02-15T13:30:40;22.10;99.90
16114;DHT22;8161;-33.910;151.156;2024-02-15T13:35:36;22.10;99.90
16114;DHT22;8161;-33.910;151.156;2024-02-15T13:38:04;22.50;99.90
16114;DHT22;8161;-33.910;151.156;2024-02-15T13:40:31;22.40;99.90
16114;DHT22;8161;-33.910;151.156;2024-02-15T13:42:59;22.40;99.90
16114;DHT22;8161;-33.910;151.156;2024-02-15T13:45:31;22.40;99.90
16114;DHT22;8161;-33.910;151.156;2024-02-15T13:48:07;22.00;99.90
16114;DHT22;8161;-33.910;151.156;2024-02-15T13:50:35;22.00;99.90
16114;DHT22;8161;-33.910;151.156;2024-02-15T13:53:04;22.00;99.90
16114;DHT22;8161;-33.910;151.156;2024-02-15T13:57:59;22.20;99.90
16114;DHT22;8161;-33.910;151.156;2024-02-15T14:00:27;22.50;99.90
16114;DHT22;8161;-33.910;151.156;2024-02-15T14:03:01;22.10;99.90
16114;DHT22;8161;-33.910;151.156;2024-02-15T14:05:30;22.50;99.90
16114;DHT22;8161;-33.910;151.156;2024-02-15T14:08:04;22.10;99.90
16114;DHT22;8161;-33.910;151.156;2024-02-15T14:10:33;22.60;99.90
16114;DHT22;8161;-33.910;151.156;2024-02-15T14:13:04;22.30;99.90
16114;DHT22;8161;-33.910;151.156;2024-02-15T14:15:33;22.10;99.90
16114;DHT22;8161;-33.910;151.156;2024-02-15T14:18:11;22.20;99.90
16114;DHT22;8161;-33.910;151.156;2024-02-15T14:23:15;22.60;99.90
16114;DHT22;8161;-33.910;151.156;2024-02-15T14:25:44;22.40;99.90
16114;DHT22;8161;-33.910;151.156;2024-02-15T14:28:11;22.00;99.90
16114;DHT22;8161;-33.910;151.156;2024-02-15T14:33:20;22.40;99.90
16114;DHT22;8161;-33.910;151.156;2024-02-15T14:35:51;22.30;99.90
16114;DHT22;8161;-33.910;151.156;2024-02-15T14:38:22;22.10;99.90
16114;DHT22;8161;-33.910;151.156;2024-02-15T14:40:50;22.50;99.90
16114;DHT22;8161;-33.910;151.156;2024-02-15T14:43:23;22.30;99.90
16114;DHT22;8161;-33.910;151.156;2024-02-15T14:50:52;22.40;99.90
16114;DHT22;8161;-33.910;151.156;2024-02-15T14:53:22;22.00;99.90
16114;DHT22;8161;-33.910;151.156;2024-02-15T14:55:49;22.40;99.90
16114;DHT22;8161;-33.910;151.156;2024-02-15T14:58:19;22.50;99.90
16114;DHT22;8161;-33.910;151.156;2024-02-15T15:00:47;22.40;99.90
16114;DHT22;8161;-33.910;151.156;2024-02-15T15:03:14;22.00;99.90
16114;DHT22;8161;-33.910;151.156;2024-02-15T15:05:45;22.40;99.90
16114;DHT22;8161;-33.910;151.156;2024-02-15T15:08:25;22.20;99.90
16114;DHT22;8161;-33.910;151.156;2024-02-15T15:11:06;22.20;99.90
16114;DHT22;8161;-33.910;151.156;2024-02-15T15:13:47;22.40;99.90
16114;DHT22;8161;-33.910;151.156;2024-02-15T15:16:14;22.40;99.90
16114;DHT22;8161;-33.910;151.156;2024-02-15T15:18:45;22.40;99.90
16114;DHT22;8161;-33.910;151.156;2024-02-15T15:21:13;22.50;99.90
16114;DHT22;8161;-33.910;151.156;2024-02-15T15:23:42;22.40;99.90
16114;DHT22;8161;-33.910;151.156;2024-02-15T15:26:10;22.50;99.90
16114;DHT22;8161;-33.910;151.156;2024-02-15T15:28:40;22.20;99.90
16114;DHT22;8161;-33.910;151.156;2024-02-15T15:31:07;22.10;99.90
16114;DHT22;8161;-33.910;151.156;2024-02-15T15:36:03;21.90;99.90
16114;DHT22;8161;-33.910;151.156;2024-02-15T15:38:30;21.90;99.90
16114;DHT22;8161;-33.910;151.156;2024-02-15T15:43:27;22.10;99.90
16114;DHT22;8161;-33.910;151.156;2024-02-15T15:45:55;22.10;99.90
16114;DHT22;8161;-33.910;151.156;2024-02-15T15:48:24;22.40;99.90
16114;DHT22;8161;-33.910;151.156;2024-02-15T15:50:51;22.30;99.90
16114;DHT22;8161;-33.910;151.156;2024-02-15T15:53:19;22.20;99.90
16114;DHT22;8161;-33.910;151.156;2024-02-15T15:55:47;22.30;99.90
16114;DHT22;8161;-33.910;151.156;2024-02-15T15:58:14;21.90;99.90
16114;DHT22;8161;-33.910;151.156;2024-02-15T16:00:42;22.20;99.90
16114;DHT22;8161;-33.910;151.156;2024-02-15T16:03:10;21.90;99.90
16114;DHT22;8161;-33.910;151.156;2024-02-15T16:13:01;22.20;99.90
16114;DHT22;8161;-33.910;151.156;2024-02-15T16:15:28;22.30;99.90
16114;DHT22;8161;-33.910;151.156;2024-02-15T16:17:55;22.00;99.90
16114;DHT22;8161;-33.910;151.156;2024-02-15T16:20:23;22.00;99.90
16114;DHT22;8161;-33.910;151.156;2024-02-15T16:22:50;22.40;99.90
16114;DHT22;8161;-33.910;151.156;2024-02-15T16:25:22;22.40;99.90
16114;DHT22;8161;-33.910;151.156;2024-02-15T16:27:49;22.20;99.90
16114;DHT22;8161;-33.910;151.156;2024-02-15T16:30:18;22.20;99.90
16114;DHT22;8161;-33.910;151.156;2024-02-15T16:35:12;22.20;99.90
16114;DHT22;8161;-33.910;151.156;2024-02-15T16:37:42;22.40;99.90
16114;DHT22;8161;-33.910;151.156;2024-02-15T16:40:13;22.00;99.90
16114;DHT22;8161;-33.910;151.156;2024-02-15T16:45:14;21.90;99.90
16114;DHT22;8161;-33.910;151.156;2024-02-15T16:50:23;22.10;99.90
16114;DHT22;8161;-33.910;151.156;2024-02-15T16:52:50;22.20;99.90
16114;DHT22;8161;-33.910;151.156;2024-02-15T16:55:18;22.30;99.90
16114;DHT22;8161;-33.910;151.156;2024-02-15T16:57:54;22.00;99.90
16114;DHT22;8161;-33.910;151.156;2024-02-15T17:00:34;21.90;99.90
16114;DHT22;8161;-33.910;151.156;2024-02-15T17:03:02;22.40;99.90
16114;DHT22;8161;-33.910;151.156;2024-02-15T17:05:31;22.10;99.90
16114;DHT22;8161;-33.910;151.156;2024-02-15T17:08:02;22.40;99.90
16114;DHT22;8161;-33.910;151.156;2024-02-15T17:12:59;22.30;99.90
16114;DHT22;8161;-33.910;151.156;2024-02-15T17:15:28;22.10;99.90
16114;DHT22;8161;-33.910;151.156;2024-02-15T17:17:55;22.00;99.90
16114;DHT22;8161;-33.910;151.156;2024-02-15T17:25:18;22.50;99.90
16114;DHT22;8161;-33.910;151.156;2024-02-15T17:27:46;22.40;99.90
16114;DHT22;8161;-33.910;151.156;2024-02-15T17:30:14;22.20;99.90
16114;DHT22;8161;-33.910;151.156;2024-02-15T17:32:42;22.40;99.90
16114;DHT22;8161;-33.910;151.156;2024-02-15T17:35:10;22.00;99.90
16114;DHT22;8161;-33.910;151.156;2024-02-15T17:37:42;22.60;99.90
16114;DHT22;8161;-33.910;151.156;2024-02-15T17:40:10;22.10;99.90
16114;DHT22;8161;-33.910;151.156;2024-02-15T17:42:39;22.40;99.90
16114;DHT22;8161;-33.910;151.156;2024-02-15T17:45:07;22.10;99.90
16114;DHT22;8161;-33.910;151.156;2024-02-15T17:47:39;22.30;99.90
16114;DHT22;8161;-33.910;151.156;2024-02-15T17:50:12;22.40;99.90
16114;DHT22;8161;-33.910;151.156;2024-02-15T17:52:45;22.10;99.90
16114;DHT22;8161;-33.910;151.156;2024-02-15T17:55:14;22.20;99.90
16114;DHT22;8161;-33.910;151.156;2024-02-15T17:57:41;22.00;99.90
16114;DHT22;8161;-33.910;151.156;2024-02-15T18:02:42;22.50;99.90
16114;DHT22;8161;-33.910;151.156;2024-02-15T18:05:16;22.20;99.90
16114;DHT22;8161;-33.910;151.156;2024-02-15T18:07:43;22.30;99.90
16114;DHT22;8161;-33.910;151.156;2024-02-15T18:10:10;22.30;99.90
16114;DHT22;8161;-33.910;151.156;2024-02-15T18:12:38;22.00;99.90
16114;DHT22;8161;-33.910;151.156;2024-02-15T18:17:52;22.40;99.90
16114;DHT22;8161;-33.910;151.156;2024-02-15T18:20:22;22.50;99.90
16114;DHT22;8161;-33.910;151.156;2024-02-15T18:22:50;22.50;99.90
16114;DHT22;8161;-33.910;151.156;2024-02-15T18:25:18;24.70;99.90
16114;DHT22;8161;-33.910;151.156;2024-02-15T18:27:45;22.10;99.90
16114;DHT22;8161;-33.910;151.156;2024-02-15T18:30:13;22.50;99.90
16114;DHT22;8161;-33.910;151.156;2024-02-15T18:32:44;22.50;99.90
16114;DHT22;8161;-33.910;151.156;2024-02-15T18:35:12;21.90;99.90
16114;DHT22;8161;-33.910;151.156;2024-02-15T18:37:42;22.40;99.90
16114;DHT22;8161;-33.910;151.156;2024-02-15T18:40:10;21.90;99.90
16114;DHT22;8161;-33.910;151.156;2024-02-15T18:42:38;22.10;99.90
16114;DHT22;8161;-33.910;151.156;2024-02-15T18:45:07;21.90;99.90
16114;DHT22;8161;-33.910;151.156;2024-02-15T18:47:34;22.30;99.90
16114;DHT22;8161;-33.910;151.156;2024-02-15T18:50:05;22.40;99.90
16114;DHT22;8161;-33.910;151.156;2024-02-15T18:52:35;22.10;99.90
16114;DHT22;8161;-33.910;151.156;2024-02-15T18:57:30;22.50;99.90
16114;DHT22;8161;-33.910;151.156;2024-02-15T18:59:57;21.90;99.90
16114;DHT22;8161;-33.910;151.156;2024-02-15T19:02:24;22.30;99.90
16114;DHT22;8161;-33.910;151.156;2024-02-15T19:04:54;22.30;99.90
16114;DHT22;8161;-33.910;151.156;2024-02-15T19:07:22;21.90;99.90
16114;DHT22;8161;-33.910;151.156;2024-02-15T19:09:49;22.00;99.90
16114;DHT22;8161;-33.910;151.156;2024-02-15T19:12:16;21.80;99.90
16114;DHT22;8161;-33.910;151.156;2024-02-15T19:14:43;22.50;99.90
16114;DHT22;8161;-33.910;151.156;2024-02-15T19:17:13;22.20;99.90
16114;DHT22;8161;-33.910;151.156;2024-02-15T19:19:41;22.10;99.90
16114;DHT22;8161;-33.910;151.156;2024-02-15T19:22:08;22.20;99.90
16114;DHT22;8161;-33.910;151.156;2024-02-15T19:24:38;21.80;99.90
16114;DHT22;8161;-33.910;151.156;2024-02-15T19:29:33;19.60;99.90
16114;DHT22;8161;-33.910;151.156;2024-02-15T19:34:28;22.10;99.90